sensor_id;sensor_type;location;lat;lon;timestamp;P1;durP1;ratioP1;P2;durP2;ratioP2
55483;SDS011;41345;51.704;5.146;2022-09-01T18:21:25;3.97;;;1.15;;
55483;SDS011;41345;51.704;5.146;2022-09-01T18:26:29;4.65;;;1.15;;
55483;SDS011;41345;51.704;5.146;2022-09-01T18:31:40;4.07;;;1.08;;
55483;SDS011;41345;51.704;5.146;2022-09-01T18:42:04;2.33;;;1.27;;
55483;SDS011;41345;51.704;5.146;2022-09-01T18:47:07;5.32;;;1.60;;
55483;SDS011;41345;51.704;5.146;2022-09-01T18:57:13;7.45;;;1.60;;
55483;SDS011;41345;51.704;5.146;2022-09-01T19:07:26;6.97;;;1.60;;
55483;SDS011;41345;51.704;5.146;2022-09-01T19:17:38;4.38;;;1.80;;
55483;SDS011;41345;51.704;5.146;2022-09-01T19:22:46;6.68;;;1.92;;
55483;SDS011;41345;51.704;5.146;2022-09-01T19:28:07;6.80;;;1.95;;
55483;SDS011;41345;51.704;5.146;2022-09-01T19:33:11;4.15;;;1.73;;
55483;SDS011;41345;51.704;5.146;2022-09-01T19:38:16;5.10;;;1.98;;
55483;SDS011;41345;51.704;5.146;2022-09-01T19:43:17;3.55;;;1.70;;
55483;SDS011;41345;51.704;5.146;2022-09-01T19:48:21;4.22;;;1.63;;
55483;SDS011;41345;51.704;5.146;2022-09-01T20:03:39;5.18;;;1.42;;
55483;SDS011;41345;51.704;5.146;2022-09-01T20:08:41;2.72;;;1.30;;
55483;SDS011;41345;51.704;5.146;2022-09-01T20:18:50;3.50;;;1.40;;
55483;SDS011;41345;51.704;5.146;2022-09-01T20:24:02;3.30;;;1.43;;
55483;SDS011;41345;51.704;5.146;2022-09-01T20:29:09;4.13;;;1.50;;
55483;SDS011;41345;51.704;5.146;2022-09-01T20:44:57;6.03;;;1.58;;
55483;SDS011;41345;51.704;5.146;2022-09-01T20:49:59;3.78;;;1.40;;
55483;SDS011;41345;51.704;5.146;2022-09-01T20:55:10;3.42;;;1.20;;
55483;SDS011;41345;51.704;5.146;2022-09-01T21:10:40;4.57;;;1.10;;
55483;SDS011;41345;51.704;5.146;2022-09-01T21:20:52;5.88;;;1.45;;
55483;SDS011;41345;51.704;5.146;2022-09-01T21:25:55;2.80;;;1.17;;
55483;SDS011;41345;51.704;5.146;2022-09-01T21:30:57;4.63;;;1.60;;
55483;SDS011;41345;51.704;5.146;2022-09-01T21:35:58;6.38;;;1.63;;
55483;SDS011;41345;51.704;5.146;2022-09-01T21:40:58;3.75;;;1.30;;
55483;SDS011;41345;51.704;5.146;2022-09-01T21:45:59;4.63;;;1.40;;
55483;SDS011;41345;51.704;5.146;2022-09-01T21:51:00;2.63;;;1.27;;
55483;SDS011;41345;51.704;5.146;2022-09-01T21:56:03;2.77;;;1.10;;
55483;SDS011;41345;51.704;5.146;2022-09-01T22:01:03;4.25;;;1.35;;
55483;SDS011;41345;51.704;5.146;2022-09-01T22:06:09;4.30;;;1.30;;
55483;SDS011;41345;51.704;5.146;2022-09-01T22:11:09;3.58;;;1.27;;
55483;SDS011;41345;51.704;5.146;2022-09-01T22:16:14;3.83;;;1.50;;
55483;SDS011;41345;51.704;5.146;2022-09-01T22:21:15;3.25;;;1.63;;
55483;SDS011;41345;51.704;5.146;2022-09-01T22:26:17;4.03;;;1.30;;
55483;SDS011;41345;51.704;5.146;2022-09-01T22:31:19;7.20;;;1.33;;
55483;SDS011;41345;51.704;5.146;2022-09-01T22:36:27;3.65;;;1.20;;
55483;SDS011;41345;51.704;5.146;2022-09-01T22:41:29;6.07;;;1.63;;
55483;SDS011;41345;51.704;5.146;2022-09-01T22:46:32;4.13;;;1.40;;
55483;SDS011;41345;51.704;5.146;2022-09-01T22:51:32;5.55;;;1.50;;
55483;SDS011;41345;51.704;5.146;2022-09-01T22:56:33;3.65;;;1.35;;
55483;SDS011;41345;51.704;5.146;2022-09-01T23:01:35;4.18;;;1.45;;
55483;SDS011;41345;51.704;5.146;2022-09-01T23:06:40;4.38;;;1.50;;
55483;SDS011;41345;51.704;5.146;2022-09-01T23:11:42;4.38;;;1.20;;
55483;SDS011;41345;51.704;5.146;2022-09-01T23:16:42;5.47;;;1.30;;
55483;SDS011;41345;51.704;5.146;2022-09-01T23:21:43;3.65;;;1.40;;
55483;SDS011;41345;51.704;5.146;2022-09-01T23:26:43;5.05;;;1.40;;
55483;SDS011;41345;51.704;5.146;2022-09-01T23:31:43;4.70;;;1.45;;
55483;SDS011;41345;51.704;5.146;2022-09-01T23:36:44;3.03;;;1.43;;
55483;SDS011;41345;51.704;5.146;2022-09-01T23:41:44;3.42;;;1.30;;
55483;SDS011;41345;51.704;5.146;2022-09-01T23:46:45;6.22;;;1.33;;
55483;SDS011;41345;51.704;5.146;2022-09-01T23:51:45;4.15;;;1.50;;
55483;SDS011;41345;51.704;5.146;2022-09-01T23:56:46;6.63;;;1.45;;
